Alplaus, New York
Current Conditions -  °F | °C
As of 12:51 AM on Monday 26 Jan 2015 (Local Time) from KALB Reporting Station
Broken Clouds Broken Clouds  
Wind Chill: -18°   Ceiling: 20000
Heat Index: -11°   Visibility: 10mi
Dew Point: -18°   Wind: 8mph
Humidity: 56%   Direction: 350°N
Pressure: 30.09"   Gusts: NA
Location:  42.86°N, 73.9°W
Report Text: KALB 260551Z 35007KT 10SM FEW170 BKN200 BKN230 M11/M18 A3009 RMK AO2 SLP195 T11111183 11072 21111 50016
Loading
Personal Weather Stations






























Interactive Weather Map New forecast layout! Learn more

10-Day Weather Forecast

Advertisements
Track Severe Weather on mobile